sensor_id;sensor_type;location;lat;lon;timestamp;pressure;altitude;pressure_sealevel;temperature;humidity
13869;BME280;7004;48.206;16.402;2023-04-06T00:02:23;100147.09;;;3.66;51.65
13869;BME280;7004;48.206;16.402;2023-04-06T00:04:50;100146.81;;;3.76;51.42
13869;BME280;7004;48.206;16.402;2023-04-06T00:07:16;100148.88;;;3.94;50.70
13869;BME280;7004;48.206;16.402;2023-04-06T00:09:43;100144.69;;;3.88;51.46
13869;BME280;7004;48.206;16.402;2023-04-06T00:12:09;100139.56;;;3.85;51.23
13869;BME280;7004;48.206;16.402;2023-04-06T00:14:35;100140.50;;;3.83;51.34
13869;BME280;7004;48.206;16.402;2023-04-06T00:17:02;100138.88;;;3.79;51.51
13869;BME280;7004;48.206;16.402;2023-04-06T00:19:28;100137.13;;;3.79;51.86
13869;BME280;7004;48.206;16.402;2023-04-06T00:21:54;100136.91;;;3.87;50.75
13869;BME280;7004;48.206;16.402;2023-04-06T00:24:20;100138.50;;;3.92;50.95
13869;BME280;7004;48.206;16.402;2023-04-06T00:26:46;100135.47;;;3.77;50.96
13869;BME280;7004;48.206;16.402;2023-04-06T00:29:12;100135.63;;;3.70;51.88
13869;BME280;7004;48.206;16.402;2023-04-06T00:31:38;100130.63;;;3.63;51.24
13869;BME280;7004;48.206;16.402;2023-04-06T00:34:06;100131.63;;;3.59;52.21
13869;BME280;7004;48.206;16.402;2023-04-06T00:36:32;100136.84;;;3.27;52.79
13869;BME280;7004;48.206;16.402;2023-04-06T00:38:58;100132.38;;;3.62;52.34
13869;BME280;7004;48.206;16.402;2023-04-06T00:41:24;100123.16;;;3.49;52.84
13869;BME280;7004;48.206;16.402;2023-04-06T00:43:50;100138.31;;;3.38;51.71
13869;BME280;7004;48.206;16.402;2023-04-06T00:46:16;100125.06;;;3.44;52.28
13869;BME280;7004;48.206;16.402;2023-04-06T00:48:42;100125.53;;;3.58;51.69
13869;BME280;7004;48.206;16.402;2023-04-06T00:51:08;100127.13;;;3.64;51.73
13869;BME280;7004;48.206;16.402;2023-04-06T00:53:34;100126.19;;;3.65;51.75
13869;BME280;7004;48.206;16.402;2023-04-06T00:56:01;100124.63;;;3.59;50.65
13869;BME280;7004;48.206;16.402;2023-04-06T00:58:27;100124.22;;;3.73;49.82
13869;BME280;7004;48.206;16.402;2023-04-06T01:00:53;100126.28;;;3.31;52.20
13869;BME280;7004;48.206;16.402;2023-04-06T01:03:19;100121.25;;;3.56;51.22
13869;BME280;7004;48.206;16.402;2023-04-06T01:05:49;100118.91;;;3.45;50.50
13869;BME280;7004;48.206;16.402;2023-04-06T01:08:18;100120.63;;;3.77;49.64
13869;BME280;7004;48.206;16.402;2023-04-06T01:10:44;100115.72;;;3.66;48.76
13869;BME280;7004;48.206;16.402;2023-04-06T01:13:10;100120.72;;;3.74;49.43
13869;BME280;7004;48.206;16.402;2023-04-06T01:15:36;100118.13;;;3.72;50.12
13869;BME280;7004;48.206;16.402;2023-04-06T01:18:04;100117.31;;;3.70;50.81
13869;BME280;7004;48.206;16.402;2023-04-06T01:20:32;100119.78;;;3.77;51.29
13869;BME280;7004;48.206;16.402;2023-04-06T01:22:58;100117.72;;;3.57;50.87
13869;BME280;7004;48.206;16.402;2023-04-06T01:25:24;100111.34;;;3.67;50.52
13869;BME280;7004;48.206;16.402;2023-04-06T01:27:51;100111.22;;;3.71;49.20
13869;BME280;7004;48.206;16.402;2023-04-06T01:30:17;100109.41;;;3.74;51.07
13869;BME280;7004;48.206;16.402;2023-04-06T01:32:44;100111.47;;;3.62;50.53
13869;BME280;7004;48.206;16.402;2023-04-06T01:35:11;100104.19;;;3.74;49.75
13869;BME280;7004;48.206;16.402;2023-04-06T01:37:37;100104.25;;;3.70;49.41
13869;BME280;7004;48.206;16.402;2023-04-06T01:40:04;100107.16;;;3.61;50.23
13869;BME280;7004;48.206;16.402;2023-04-06T01:42:30;100106.13;;;3.65;48.73
13869;BME280;7004;48.206;16.402;2023-04-06T01:44:57;100096.19;;;3.78;49.11
13869;BME280;7004;48.206;16.402;2023-04-06T01:47:23;100097.69;;;3.87;49.17
13869;BME280;7004;48.206;16.402;2023-04-06T01:49:49;100096.09;;;3.81;48.61
13869;BME280;7004;48.206;16.402;2023-04-06T01:52:16;100099.81;;;3.74;49.21
13869;BME280;7004;48.206;16.402;2023-04-06T01:54:42;100096.81;;;3.86;49.23
13869;BME280;7004;48.206;16.402;2023-04-06T01:57:10;100098.91;;;3.75;50.01
13869;BME280;7004;48.206;16.402;2023-04-06T01:59:36;100100.47;;;3.51;49.82
13869;BME280;7004;48.206;16.402;2023-04-06T02:02:02;100103.91;;;3.22;50.70
13869;BME280;7004;48.206;16.402;2023-04-06T02:04:29;100102.81;;;3.29;51.21
13869;BME280;7004;48.206;16.402;2023-04-06T02:06:55;100097.47;;;3.34;51.11
13869;BME280;7004;48.206;16.402;2023-04-06T02:09:21;100108.66;;;3.06;50.65
13869;BME280;7004;48.206;16.402;2023-04-06T02:11:48;100102.13;;;3.54;49.80
13869;BME280;7004;48.206;16.402;2023-04-06T02:14:14;100096.34;;;3.42;49.77
13869;BME280;7004;48.206;16.402;2023-04-06T02:16:41;100096.63;;;3.32;49.53
13869;BME280;7004;48.206;16.402;2023-04-06T02:19:07;100098.72;;;3.50;50.04
13869;BME280;7004;48.206;16.402;2023-04-06T02:21:33;100098.03;;;3.75;49.21
13869;BME280;7004;48.206;16.402;2023-04-06T02:24:00;100096.41;;;3.41;49.89
13869;BME280;7004;48.206;16.402;2023-04-06T02:26:26;100094.91;;;3.32;49.93
13869;BME280;7004;48.206;16.402;2023-04-06T02:28:52;100090.38;;;3.37;49.17
13869;BME280;7004;48.206;16.402;2023-04-06T02:31:18;100084.91;;;3.46;49.06
13869;BME280;7004;48.206;16.402;2023-04-06T02:33:44;100087.91;;;3.64;48.50
13869;BME280;7004;48.206;16.402;2023-04-06T02:36:11;100093.44;;;3.53;48.79
13869;BME280;7004;48.206;16.402;2023-04-06T02:38:37;100085.44;;;3.58;48.34
13869;BME280;7004;48.206;16.402;2023-04-06T02:41:03;100086.81;;;3.40;48.47
13869;BME280;7004;48.206;16.402;2023-04-06T02:43:29;100086.69;;;3.44;47.88
13869;BME280;7004;48.206;16.402;2023-04-06T02:45:56;100078.84;;;3.46;48.01
13869;BME280;7004;48.206;16.402;2023-04-06T02:48:22;100086.47;;;3.52;48.36
13869;BME280;7004;48.206;16.402;2023-04-06T02:50:48;100084.91;;;3.46;49.02
13869;BME280;7004;48.206;16.402;2023-04-06T02:53:14;100089.38;;;3.43;48.48
13869;BME280;7004;48.206;16.402;2023-04-06T02:55:40;100093.72;;;3.42;48.53
13869;BME280;7004;48.206;16.402;2023-04-06T02:58:06;100096.63;;;3.33;48.80
13869;BME280;7004;48.206;16.402;2023-04-06T03:00:32;100093.56;;;3.48;48.41
13869;BME280;7004;48.206;16.402;2023-04-06T03:02:59;100097.03;;;3.18;48.87
13869;BME280;7004;48.206;16.402;2023-04-06T03:05:25;100088.00;;;3.30;49.06
13869;BME280;7004;48.206;16.402;2023-04-06T03:07:51;100081.91;;;3.29;49.18
13869;BME280;7004;48.206;16.402;2023-04-06T03:10:17;100080.53;;;3.47;48.58
13869;BME280;7004;48.206;16.402;2023-04-06T03:12:43;100082.59;;;3.65;47.98
13869;BME280;7004;48.206;16.402;2023-04-06T03:15:10;100086.53;;;3.50;48.20
13869;BME280;7004;48.206;16.402;2023-04-06T03:17:37;100081.38;;;3.16;49.28
13869;BME280;7004;48.206;16.402;2023-04-06T03:20:04;100082.94;;;3.55;48.35
13869;BME280;7004;48.206;16.402;2023-04-06T03:22:31;100088.84;;;3.61;47.54
13869;BME280;7004;48.206;16.402;2023-04-06T03:24:57;100102.84;;;2.96;48.36
13869;BME280;7004;48.206;16.402;2023-04-06T03:27:23;100106.78;;;3.11;49.00
13869;BME280;7004;48.206;16.402;2023-04-06T03:29:49;100101.75;;;3.03;49.17
13869;BME280;7004;48.206;16.402;2023-04-06T03:32:15;100101.81;;;3.35;48.19
13869;BME280;7004;48.206;16.402;2023-04-06T03:34:42;100109.06;;;3.23;47.92
13869;BME280;7004;48.206;16.402;2023-04-06T03:37:08;100106.22;;;3.00;48.88
13869;BME280;7004;48.206;16.402;2023-04-06T03:39:34;100105.72;;;3.49;47.79
13869;BME280;7004;48.206;16.402;2023-04-06T03:42:00;100102.38;;;3.44;48.26
13869;BME280;7004;48.206;16.402;2023-04-06T03:44:26;100113.41;;;2.90;48.74
13869;BME280;7004;48.206;16.402;2023-04-06T03:46:52;100108.00;;;3.31;48.76
13869;BME280;7004;48.206;16.402;2023-04-06T03:49:18;100099.13;;;3.36;48.89
13869;BME280;7004;48.206;16.402;2023-04-06T03:51:44;100110.22;;;3.13;49.10
13869;BME280;7004;48.206;16.402;2023-04-06T03:54:10;100104.38;;;2.69;49.25
13869;BME280;7004;48.206;16.402;2023-04-06T03:56:37;100107.59;;;2.80;49.82
13869;BME280;7004;48.206;16.402;2023-04-06T03:59:03;100113.50;;;2.87;49.19
13869;BME280;7004;48.206;16.402;2023-04-06T04:01:29;100119.38;;;2.95;48.59
13869;BME280;7004;48.206;16.402;2023-04-06T04:03:55;100119.78;;;2.80;49.05
13869;BME280;7004;48.206;16.402;2023-04-06T04:06:21;100115.28;;;2.85;49.15
13869;BME280;7004;48.206;16.402;2023-04-06T04:08:47;100114.59;;;2.78;49.33
13869;BME280;7004;48.206;16.402;2023-04-06T04:11:14;100114.03;;;3.00;48.90
13869;BME280;7004;48.206;16.402;2023-04-06T04:13:41;100118.19;;;2.74;49.34
13869;BME280;7004;48.206;16.402;2023-04-06T04:16:07;100112.38;;;2.63;50.36
13869;BME280;7004;48.206;16.402;2023-04-06T04:18:33;100110.63;;;2.63;49.54
13869;BME280;7004;48.206;16.402;2023-04-06T04:20:59;100115.25;;;2.87;50.41
13869;BME280;7004;48.206;16.402;2023-04-06T04:23:26;100115.59;;;3.07;49.29
13869;BME280;7004;48.206;16.402;2023-04-06T04:25:52;100121.13;;;2.62;50.19
13869;BME280;7004;48.206;16.402;2023-04-06T04:28:18;100117.50;;;3.00;49.62
13869;BME280;7004;48.206;16.402;2023-04-06T04:30:44;100121.78;;;2.33;50.40
13869;BME280;7004;48.206;16.402;2023-04-06T04:33:10;100126.63;;;2.50;50.88
13869;BME280;7004;48.206;16.402;2023-04-06T04:35:36;100121.44;;;2.82;50.14
13869;BME280;7004;48.206;16.402;2023-04-06T04:38:03;100126.00;;;2.38;51.31
13869;BME280;7004;48.206;16.402;2023-04-06T04:40:30;100126.13;;;2.70;50.72
13869;BME280;7004;48.206;16.402;2023-04-06T04:42:56;100127.41;;;2.88;49.57
13869;BME280;7004;48.206;16.402;2023-04-06T04:45:22;100124.84;;;2.86;50.22
13869;BME280;7004;48.206;16.402;2023-04-06T04:47:48;100127.66;;;2.43;50.75
13869;BME280;7004;48.206;16.402;2023-04-06T04:50:14;100128.31;;;2.52;51.24
13869;BME280;7004;48.206;16.402;2023-04-06T04:52:40;100126.31;;;2.26;52.53
13869;BME280;7004;48.206;16.402;2023-04-06T04:55:07;100126.88;;;2.39;52.06
13869;BME280;7004;48.206;16.402;2023-04-06T04:57:33;100129.50;;;2.39;52.13
13869;BME280;7004;48.206;16.402;2023-04-06T04:59:59;100125.66;;;2.15;52.54
13869;BME280;7004;48.206;16.402;2023-04-06T05:02:26;100125.16;;;2.38;52.32
13869;BME280;7004;48.206;16.402;2023-04-06T05:04:52;100119.97;;;2.36;52.46
13869;BME280;7004;48.206;16.402;2023-04-06T05:07:18;100127.28;;;2.58;51.79
13869;BME280;7004;48.206;16.402;2023-04-06T05:09:46;100121.03;;;2.28;53.10
13869;BME280;7004;48.206;16.402;2023-04-06T05:12:13;100130.56;;;2.66;51.76
13869;BME280;7004;48.206;16.402;2023-04-06T05:14:40;100131.53;;;2.25;51.65
13869;BME280;7004;48.206;16.402;2023-04-06T05:17:06;100128.50;;;2.43;51.87
13869;BME280;7004;48.206;16.402;2023-04-06T05:19:32;100131.63;;;2.20;52.95
13869;BME280;7004;48.206;16.402;2023-04-06T05:21:58;100131.94;;;2.08;52.69
13869;BME280;7004;48.206;16.402;2023-04-06T05:24:24;100127.22;;;2.24;52.56
13869;BME280;7004;48.206;16.402;2023-04-06T05:26:51;100123.03;;;2.54;52.08
13869;BME280;7004;48.206;16.402;2023-04-06T05:29:18;100122.09;;;2.56;51.72
13869;BME280;7004;48.206;16.402;2023-04-06T05:31:46;100125.78;;;2.48;52.21
13869;BME280;7004;48.206;16.402;2023-04-06T05:34:12;100121.34;;;2.87;51.83
13869;BME280;7004;48.206;16.402;2023-04-06T05:36:39;100121.06;;;2.63;51.98
13869;BME280;7004;48.206;16.402;2023-04-06T05:39:06;100122.72;;;2.66;51.81
13869;BME280;7004;48.206;16.402;2023-04-06T05:41:33;100122.69;;;3.02;51.36
13869;BME280;7004;48.206;16.402;2023-04-06T05:43:59;100127.72;;;3.10;51.54
13869;BME280;7004;48.206;16.402;2023-04-06T05:46:25;100125.13;;;3.10;50.88
13869;BME280;7004;48.206;16.402;2023-04-06T05:48:52;100119.34;;;2.97;50.41
13869;BME280;7004;48.206;16.402;2023-04-06T05:51:18;100125.19;;;3.06;51.40
13869;BME280;7004;48.206;16.402;2023-04-06T05:53:44;100121.28;;;3.23;50.42
13869;BME280;7004;48.206;16.402;2023-04-06T05:56:10;100122.19;;;3.22;51.09
13869;BME280;7004;48.206;16.402;2023-04-06T05:58:37;100127.63;;;3.13;50.50
13869;BME280;7004;48.206;16.402;2023-04-06T06:01:03;100121.03;;;3.32;50.97
13869;BME280;7004;48.206;16.402;2023-04-06T06:03:30;100126.28;;;3.31;50.16
13869;BME280;7004;48.206;16.402;2023-04-06T06:06:03;100129.19;;;3.20;50.01
13869;BME280;7004;48.206;16.402;2023-04-06T06:08:30;100126.03;;;3.40;50.31
13869;BME280;7004;48.206;16.402;2023-04-06T06:10:57;100129.03;;;3.57;49.48
13869;BME280;7004;48.206;16.402;2023-04-06T06:13:23;100120.38;;;3.55;50.12
13869;BME280;7004;48.206;16.402;2023-04-06T06:15:50;100126.28;;;3.91;49.37
13869;BME280;7004;48.206;16.402;2023-04-06T06:18:16;100132.78;;;3.78;49.78
13869;BME280;7004;48.206;16.402;2023-04-06T06:20:42;100122.78;;;3.92;49.57
13869;BME280;7004;48.206;16.402;2023-04-06T06:23:09;100132.22;;;3.68;49.54
13869;BME280;7004;48.206;16.402;2023-04-06T06:25:35;100133.09;;;3.67;49.50
13869;BME280;7004;48.206;16.402;2023-04-06T06:28:02;100132.88;;;3.75;49.50
13869;BME280;7004;48.206;16.402;2023-04-06T06:30:28;100129.34;;;4.07;48.89
13869;BME280;7004;48.206;16.402;2023-04-06T06:32:54;100128.53;;;4.33;48.82
13869;BME280;7004;48.206;16.402;2023-04-06T06:35:20;100132.47;;;4.19;48.77
13869;BME280;7004;48.206;16.402;2023-04-06T06:37:46;100128.94;;;4.20;48.59
13869;BME280;7004;48.206;16.402;2023-04-06T06:40:12;100125.81;;;4.36;49.81
13869;BME280;7004;48.206;16.402;2023-04-06T06:42:39;100126.75;;;4.34;49.30
13869;BME280;7004;48.206;16.402;2023-04-06T06:45:07;100136.53;;;4.55;49.21
13869;BME280;7004;48.206;16.402;2023-04-06T06:47:34;100132.69;;;4.67;48.62
13869;BME280;7004;48.206;16.402;2023-04-06T06:50:00;100136.69;;;4.51;48.77
13869;BME280;7004;48.206;16.402;2023-04-06T06:52:29;100135.84;;;4.77;48.61
13869;BME280;7004;48.206;16.402;2023-04-06T06:54:55;100127.56;;;4.89;48.29
13869;BME280;7004;48.206;16.402;2023-04-06T06:57:22;100128.25;;;4.96;47.79
13869;BME280;7004;48.206;16.402;2023-04-06T06:59:48;100126.31;;;5.51;47.32
13869;BME280;7004;48.206;16.402;2023-04-06T07:02:14;100131.91;;;4.64;48.61
13869;BME280;7004;48.206;16.402;2023-04-06T07:04:40;100137.03;;;4.67;48.56
13869;BME280;7004;48.206;16.402;2023-04-06T07:07:06;100125.78;;;5.65;47.54
13869;BME280;7004;48.206;16.402;2023-04-06T07:09:35;100129.84;;;5.74;47.19
13869;BME280;7004;48.206;16.402;2023-04-06T07:12:01;100124.59;;;5.25;47.26
13869;BME280;7004;48.206;16.402;2023-04-06T07:14:28;100132.25;;;5.80;46.40
13869;BME280;7004;48.206;16.402;2023-04-06T07:16:54;100129.91;;;5.72;46.42
13869;BME280;7004;48.206;16.402;2023-04-06T07:19:20;100125.22;;;5.57;46.70
13869;BME280;7004;48.206;16.402;2023-04-06T07:21:46;100127.53;;;6.35;44.69
13869;BME280;7004;48.206;16.402;2023-04-06T07:24:12;100126.59;;;6.58;45.36
13869;BME280;7004;48.206;16.402;2023-04-06T07:26:38;100128.50;;;6.32;46.22
13869;BME280;7004;48.206;16.402;2023-04-06T07:29:04;100117.38;;;7.31;44.31
13869;BME280;7004;48.206;16.402;2023-04-06T07:31:30;100120.75;;;8.31;43.08
13869;BME280;7004;48.206;16.402;2023-04-06T07:33:56;100126.34;;;7.07;44.63
13869;BME280;7004;48.206;16.402;2023-04-06T07:36:22;100116.81;;;7.64;43.24
13869;BME280;7004;48.206;16.402;2023-04-06T07:38:50;100109.19;;;7.78;42.14
13869;BME280;7004;48.206;16.402;2023-04-06T07:41:17;100118.22;;;6.70;43.41
13869;BME280;7004;48.206;16.402;2023-04-06T07:43:43;100110.13;;;7.57;41.97
13869;BME280;7004;48.206;16.402;2023-04-06T07:46:09;100109.19;;;7.18;43.03
13869;BME280;7004;48.206;16.402;2023-04-06T07:48:35;100109.88;;;7.03;42.95
13869;BME280;7004;48.206;16.402;2023-04-06T07:51:07;100105.50;;;7.62;41.34
13869;BME280;7004;48.206;16.402;2023-04-06T07:53:33;100109.97;;;7.20;42.80
13869;BME280;7004;48.206;16.402;2023-04-06T07:55:59;100099.13;;;8.61;40.69
13869;BME280;7004;48.206;16.402;2023-04-06T07:58:25;100105.06;;;8.83;38.63
13869;BME280;7004;48.206;16.402;2023-04-06T08:00:54;100099.59;;;10.03;36.91
13869;BME280;7004;48.206;16.402;2023-04-06T08:03:21;100100.31;;;10.39;37.30
13869;BME280;7004;48.206;16.402;2023-04-06T08:05:52;100103.50;;;8.96;39.02
13869;BME280;7004;48.206;16.402;2023-04-06T08:08:18;100093.78;;;8.97;39.38
13869;BME280;7004;48.206;16.402;2023-04-06T08:10:45;100101.13;;;8.56;40.23
13869;BME280;7004;48.206;16.402;2023-04-06T08:13:11;100090.81;;;10.19;37.75
13869;BME280;7004;48.206;16.402;2023-04-06T08:15:37;100096.03;;;8.34;40.01
13869;BME280;7004;48.206;16.402;2023-04-06T08:18:04;100093.25;;;8.73;39.90
13869;BME280;7004;48.206;16.402;2023-04-06T08:20:30;100095.97;;;9.06;38.31
13869;BME280;7004;48.206;16.402;2023-04-06T08:22:56;100088.13;;;11.27;35.73
13869;BME280;7004;48.206;16.402;2023-04-06T08:25:22;100089.03;;;10.51;36.66
13869;BME280;7004;48.206;16.402;2023-04-06T08:27:48;100091.66;;;10.03;36.83
13869;BME280;7004;48.206;16.402;2023-04-06T08:30:14;100084.72;;;10.34;37.23
13869;BME280;7004;48.206;16.402;2023-04-06T08:32:41;100079.47;;;10.64;37.11
13869;BME280;7004;48.206;16.402;2023-04-06T08:35:08;100079.50;;;11.23;36.21
13869;BME280;7004;48.206;16.402;2023-04-06T08:37:34;100089.59;;;9.10;37.74
13869;BME280;7004;48.206;16.402;2023-04-06T08:40:01;100090.22;;;9.82;36.61
13869;BME280;7004;48.206;16.402;2023-04-06T08:42:30;100090.03;;;10.17;36.08
13869;BME280;7004;48.206;16.402;2023-04-06T08:44:57;100066.66;;;11.31;34.79
13869;BME280;7004;48.206;16.402;2023-04-06T08:47:23;100083.75;;;9.88;36.31
13869;BME280;7004;48.206;16.402;2023-04-06T08:49:51;100083.06;;;9.68;36.01
13869;BME280;7004;48.206;16.402;2023-04-06T08:52:18;100077.81;;;9.51;36.78
13869;BME280;7004;48.206;16.402;2023-04-06T08:54:46;100078.84;;;8.63;37.80
13869;BME280;7004;48.206;16.402;2023-04-06T08:57:13;100085.78;;;8.27;39.60
13869;BME280;7004;48.206;16.402;2023-04-06T08:59:41;100070.09;;;9.63;37.72
13869;BME280;7004;48.206;16.402;2023-04-06T09:02:16;100066.00;;;9.58;38.38
13869;BME280;7004;48.206;16.402;2023-04-06T09:04:45;100057.88;;;9.94;37.27
13869;BME280;7004;48.206;16.402;2023-04-06T09:07:15;100067.41;;;10.28;37.26
13869;BME280;7004;48.206;16.402;2023-04-06T09:09:41;100058.31;;;11.09;35.88
13869;BME280;7004;48.206;16.402;2023-04-06T09:12:28;100056.47;;;11.40;36.79
13869;BME280;7004;48.206;16.402;2023-04-06T09:14:58;100054.47;;;10.70;36.22
13869;BME280;7004;48.206;16.402;2023-04-06T09:17:29;100031.47;;;11.15;35.75
13869;BME280;7004;48.206;16.402;2023-04-06T09:19:56;100049.06;;;10.25;36.82
13869;BME280;7004;48.206;16.402;2023-04-06T09:22:23;100048.91;;;8.64;38.17
13869;BME280;7004;48.206;16.402;2023-04-06T09:24:55;100033.41;;;8.92;37.35
13869;BME280;7004;48.206;16.402;2023-04-06T09:27:35;100029.66;;;9.14;38.03
13869;BME280;7004;48.206;16.402;2023-04-06T09:30:10;100029.56;;;9.80;36.96
13869;BME280;7004;48.206;16.402;2023-04-06T09:32:50;100015.88;;;8.74;37.08
13869;BME280;7004;48.206;16.402;2023-04-06T09:35:17;100017.06;;;10.62;36.19
13869;BME280;7004;48.206;16.402;2023-04-06T09:37:47;100019.34;;;9.58;35.51
13869;BME280;7004;48.206;16.402;2023-04-06T09:40:14;100013.84;;;11.15;34.58
13869;BME280;7004;48.206;16.402;2023-04-06T09:42:46;100011.09;;;10.28;34.38
13869;BME280;7004;48.206;16.402;2023-04-06T09:45:13;100017.88;;;10.16;34.49
13869;BME280;7004;48.206;16.402;2023-04-06T09:47:44;100012.28;;;10.53;34.34
13869;BME280;7004;48.206;16.402;2023-04-06T09:50:13;100002.75;;;10.04;34.27
13869;BME280;7004;48.206;16.402;2023-04-06T09:52:51;100000.72;;;9.12;35.16
13869;BME280;7004;48.206;16.402;2023-04-06T09:55:34;100002.31;;;9.64;34.38
13869;BME280;7004;48.206;16.402;2023-04-06T09:58:06;100001.78;;;9.41;35.26
13869;BME280;7004;48.206;16.402;2023-04-06T10:00:45;99995.50;;;8.78;36.36
13869;BME280;7004;48.206;16.402;2023-04-06T10:06:14;99976.38;;;10.18;35.21
13869;BME280;7004;48.206;16.402;2023-04-06T10:08:43;99985.09;;;10.50;33.91
13869;BME280;7004;48.206;16.402;2023-04-06T10:11:11;99986.13;;;11.35;31.78
13869;BME280;7004;48.206;16.402;2023-04-06T10:13:38;99979.56;;;11.55;31.53
13869;BME280;7004;48.206;16.402;2023-04-06T10:16:05;99973.31;;;11.56;32.29
13869;BME280;7004;48.206;16.402;2023-04-06T10:18:32;99974.75;;;10.16;31.63
13869;BME280;7004;48.206;16.402;2023-04-06T10:21:11;99975.03;;;10.57;32.47
13869;BME280;7004;48.206;16.402;2023-04-06T10:23:51;99965.28;;;10.43;31.47
13869;BME280;7004;48.206;16.402;2023-04-06T10:26:20;99951.00;;;11.61;30.84
13869;BME280;7004;48.206;16.402;2023-04-06T10:28:48;99958.50;;;10.07;32.22
13869;BME280;7004;48.206;16.402;2023-04-06T10:31:23;99953.91;;;11.29;32.47
13869;BME280;7004;48.206;16.402;2023-04-06T10:34:02;99948.44;;;12.00;31.06
13869;BME280;7004;48.206;16.402;2023-04-06T10:36:34;99949.00;;;10.94;30.83
13869;BME280;7004;48.206;16.402;2023-04-06T10:39:03;99952.75;;;10.76;31.77
13869;BME280;7004;48.206;16.402;2023-04-06T10:41:43;99956.56;;;10.41;31.64
13869;BME280;7004;48.206;16.402;2023-04-06T10:44:22;99952.22;;;10.24;31.48
13869;BME280;7004;48.206;16.402;2023-04-06T10:46:57;99950.00;;;10.63;30.64
13869;BME280;7004;48.206;16.402;2023-04-06T10:49:25;99934.56;;;11.55;32.05
13869;BME280;7004;48.206;16.402;2023-04-06T10:51:56;99932.75;;;12.37;31.49
13869;BME280;7004;48.206;16.402;2023-04-06T10:54:25;99933.31;;;11.61;31.27
13869;BME280;7004;48.206;16.402;2023-04-06T10:56:52;99930.28;;;10.54;31.07
13869;BME280;7004;48.206;16.402;2023-04-06T10:59:20;99937.69;;;10.33;31.51
13869;BME280;7004;48.206;16.402;2023-04-06T11:01:47;99944.78;;;10.01;31.43
13869;BME280;7004;48.206;16.402;2023-04-06T11:04:20;99930.13;;;10.71;31.27
13869;BME280;7004;48.206;16.402;2023-04-06T11:06:50;99928.78;;;10.79;30.62
13869;BME280;7004;48.206;16.402;2023-04-06T11:09:27;99929.44;;;11.11;30.10
13869;BME280;7004;48.206;16.402;2023-04-06T11:11:54;99920.44;;;10.42;30.88
13869;BME280;7004;48.206;16.402;2023-04-06T11:14:22;99927.72;;;10.81;30.36
13869;BME280;7004;48.206;16.402;2023-04-06T11:16:49;99922.72;;;11.20;30.97
13869;BME280;7004;48.206;16.402;2023-04-06T11:19:16;99911.72;;;11.54;29.13
13869;BME280;7004;48.206;16.402;2023-04-06T11:21:48;99905.66;;;12.07;29.65
13869;BME280;7004;48.206;16.402;2023-04-06T11:24:18;99909.31;;;11.08;29.26
13869;BME280;7004;48.206;16.402;2023-04-06T11:26:50;99909.94;;;11.41;29.23
13869;BME280;7004;48.206;16.402;2023-04-06T11:29:30;99893.84;;;12.38;28.36
13869;BME280;7004;48.206;16.402;2023-04-06T11:32:05;99893.59;;;11.34;30.37
13869;BME280;7004;48.206;16.402;2023-04-06T11:34:39;99882.72;;;12.33;28.75
13869;BME280;7004;48.206;16.402;2023-04-06T11:37:11;99895.50;;;11.59;28.81
13869;BME280;7004;48.206;16.402;2023-04-06T11:39:47;99898.66;;;10.67;29.80
13869;BME280;7004;48.206;16.402;2023-04-06T11:42:25;99876.91;;;10.47;30.01
13869;BME280;7004;48.206;16.402;2023-04-06T11:44:56;99878.84;;;12.11;28.46
13869;BME280;7004;48.206;16.402;2023-04-06T11:47:36;99873.03;;;12.83;28.98
13869;BME280;7004;48.206;16.402;2023-04-06T11:50:13;99870.16;;;12.99;28.71
13869;BME280;7004;48.206;16.402;2023-04-06T11:52:41;99862.53;;;12.05;28.20
13869;BME280;7004;48.206;16.402;2023-04-06T11:55:25;99863.47;;;11.76;28.80
13869;BME280;7004;48.206;16.402;2023-04-06T11:57:52;99852.81;;;12.69;28.87
13869;BME280;7004;48.206;16.402;2023-04-06T12:00:18;99857.00;;;11.68;28.92
13869;BME280;7004;48.206;16.402;2023-04-06T12:02:49;99854.69;;;11.76;29.34
13869;BME280;7004;48.206;16.402;2023-04-06T12:05:16;99851.50;;;12.23;28.08
13869;BME280;7004;48.206;16.402;2023-04-06T12:07:42;99854.56;;;11.92;28.22
13869;BME280;7004;48.206;16.402;2023-04-06T12:10:09;99835.06;;;11.38;28.74
13869;BME280;7004;48.206;16.402;2023-04-06T12:12:35;99840.00;;;11.03;28.83
13869;BME280;7004;48.206;16.402;2023-04-06T12:15:01;99838.72;;;12.43;28.49
13869;BME280;7004;48.206;16.402;2023-04-06T12:17:27;99838.00;;;12.90;27.45
13869;BME280;7004;48.206;16.402;2023-04-06T12:19:53;99830.22;;;12.38;28.00
13869;BME280;7004;48.206;16.402;2023-04-06T12:22:20;99832.16;;;12.98;28.36
13869;BME280;7004;48.206;16.402;2023-04-06T12:24:46;99824.09;;;13.00;27.06
13869;BME280;7004;48.206;16.402;2023-04-06T12:27:12;99812.72;;;12.10;28.37
13869;BME280;7004;48.206;16.402;2023-04-06T12:29:38;99809.06;;;13.72;27.22
13869;BME280;7004;48.206;16.402;2023-04-06T12:32:05;99821.09;;;13.04;27.17
13869;BME280;7004;48.206;16.402;2023-04-06T12:34:32;99820.25;;;12.29;28.01
13869;BME280;7004;48.206;16.402;2023-04-06T12:36:58;99827.75;;;12.73;27.74
13869;BME280;7004;48.206;16.402;2023-04-06T12:39:27;99819.63;;;12.63;27.21
13869;BME280;7004;48.206;16.402;2023-04-06T12:41:53;99805.47;;;11.59;28.33
13869;BME280;7004;48.206;16.402;2023-04-06T12:44:20;99804.03;;;12.33;28.56
13869;BME280;7004;48.206;16.402;2023-04-06T12:46:46;99814.09;;;12.28;28.52
13869;BME280;7004;48.206;16.402;2023-04-06T12:49:12;99811.06;;;11.42;28.64
13869;BME280;7004;48.206;16.402;2023-04-06T12:51:38;99812.94;;;11.79;28.87
13869;BME280;7004;48.206;16.402;2023-04-06T12:54:04;99811.22;;;12.06;28.73
13869;BME280;7004;48.206;16.402;2023-04-06T12:56:31;99803.28;;;11.66;28.30
13869;BME280;7004;48.206;16.402;2023-04-06T12:58:58;99809.66;;;10.94;29.20
13869;BME280;7004;48.206;16.402;2023-04-06T13:01:24;99804.34;;;10.82;29.30
13869;BME280;7004;48.206;16.402;2023-04-06T13:03:52;99801.28;;;11.96;28.99
13869;BME280;7004;48.206;16.402;2023-04-06T13:06:18;99820.31;;;11.07;29.36